Time;durP1;ratioP1;P1;durP2;ratioP2;P2;SDS_P1;SDS_P2;PMS_P1;PMS_P2;Temp;Humidity;BMP_temperature;BMP_pressure;BME280_temperature;BME280_humidity;BME280_pressure;Samples;Min_cycle;Max_cycle;Signal;HPM_P1;HPM_P2
2023/09/02 00:01:59;;;;;;;3.80;3.45;;;;;;;16.17;100.00;100994.56;5046057;28;20057;-82
2023/09/02 00:04:25;;;;;;;3.55;3.35;;;;;;;16.18;100.00;101006.00;5021343;28;20037;-81
2023/09/02 00:06:52;;;;;;;4.22;3.22;;;;;;;16.16;100.00;101002.53;5015811;28;20042;-85
2023/09/02 00:09:18;;;;;;;3.80;3.50;;;;;;;16.17;100.00;100999.00;5017796;28;20402;-82
2023/09/02 00:11:45;;;;;;;3.85;3.55;;;;;;;16.19;100.00;101005.97;5012830;28;20139;-86
2023/09/02 00:14:13;;;;;;;4.32;3.42;;;;;;;16.18;100.00;100998.94;5003298;28;20473;-85
2023/09/02 00:16:39;;;;;;;2.72;2.50;;;;;;;16.18;100.00;100998.94;5016270;28;20041;-81
2023/09/02 00:19:06;;;;;;;4.22;3.83;;;;;;;16.19;100.00;101005.97;5049342;28;20041;-82
2023/09/02 00:21:33;;;;;;;7.72;4.32;;;;;;;16.18;100.00;101004.22;5009713;28;20357;-82
2023/09/02 00:24:06;;;;;;;4.22;3.83;;;;;;;16.18;100.00;100996.31;5019379;28;20164;-81
2023/09/02 00:26:33;;;;;;;5.00;4.50;;;;;;;16.17;100.00;100993.72;5016461;28;20068;-82
2023/09/02 00:29:01;;;;;;;4.88;4.45;;;;;;;16.15;100.00;100999.03;5019659;28;20132;-82
2023/09/02 00:31:30;;;;;;;6.03;5.00;;;;;;;16.13;100.00;101003.47;5032836;28;20150;-86
2023/09/02 00:33:56;;;;;;;3.80;3.50;;;;;;;16.14;100.00;101005.22;5015734;28;20079;-84
2023/09/02 00:36:23;;;;;;;3.97;3.58;;;;;;;16.14;100.00;101009.63;5020553;28;20048;-83
2023/09/02 00:38:49;;;;;;;3.45;3.15;;;;;;;16.15;100.00;101009.59;5017888;28;20038;-81
2023/09/02 00:41:36;;;;;;;7.22;3.35;;;;;;;16.14;100.00;101007.88;5013106;28;20057;-83
2023/09/02 00:44:02;;;;;;;4.53;3.22;;;;;;;16.13;100.00;101013.19;5016796;28;20045;-81
2023/09/02 00:46:29;;;;;;;4.05;3.63;;;;;;;16.09;100.00;101009.75;5018029;28;20037;-81
2023/09/02 00:48:56;;;;;;;4.60;3.63;;;;;;;16.06;100.00;101012.50;5044358;28;20037;-86
2023/09/02 00:51:22;;;;;;;4.63;3.33;;;;;;;16.02;100.00;101002.88;5012720;28;20038;-83
2023/09/02 00:53:49;;;;;;;3.63;3.33;;;;;;;16.00;100.00;101005.56;5013375;28;20049;-85
2023/09/02 00:56:16;;;;;;;3.13;2.83;;;;;;;15.98;100.00;101009.16;5020669;28;20057;-81
2023/09/02 00:58:43;;;;;;;2.72;2.53;;;;;;;15.95;100.00;101010.09;5018659;28;20057;-85
2023/09/02 01:01:10;;;;;;;3.13;2.78;;;;;;;15.93;100.00;101009.28;5016967;28;20120;-82
2023/09/02 01:03:39;;;;;;;3.63;2.47;;;;;;;15.95;100.00;101012.75;5014751;28;20101;-84
2023/09/02 01:06:07;;;;;;;3.20;2.92;;;;;;;15.93;100.00;101013.69;5019945;28;20073;-84
2023/09/02 01:08:34;;;;;;;4.97;3.03;;;;;;;15.91;100.00;101018.16;5016795;28;20050;-83
2023/09/02 01:11:01;;;;;;;2.78;2.60;;;;;;;15.91;100.00;101018.16;5032497;28;20435;-85
2023/09/02 01:13:28;;;;;;;6.40;3.58;;;;;;;15.93;100.00;101013.69;5002292;28;20055;-84
2023/09/02 01:15:55;;;;;;;3.85;3.55;;;;;;;15.90;100.00;101014.63;5024483;28;20120;-86
2023/09/02 01:18:26;;;;;;;4.68;3.30;;;;;;;15.86;100.00;101019.13;5003998;28;20038;-84
2023/09/02 01:21:20;;;;;;;3.95;3.53;;;;;;;15.85;100.00;101017.41;5013304;28;20042;-82
2023/09/02 01:24:36;;;;;;;4.38;2.78;;;;;;;15.86;100.00;101020.91;5013727;28;20107;-81
2023/09/02 01:27:25;;;;;;;3.75;3.45;;;;;;;15.87;100.00;101018.22;5022538;28;20134;-81
2023/09/02 01:30:19;;;;;;;3.63;3.40;;;;;;;15.90;100.00;101021.69;5052715;28;20057;-83
2023/09/02 01:32:49;;;;;;;3.38;2.60;;;;;;;15.90;100.00;101024.34;5016225;28;20053;-83
2023/09/02 01:35:20;;;;;;;3.30;3.00;;;;;;;15.90;100.00;101029.63;5021261;28;20048;-81
2023/09/02 01:37:53;;;;;;;3.42;3.22;;;;;;;15.87;100.00;101023.50;5033228;28;20063;-81
2023/09/02 01:40:25;;;;;;;3.70;3.40;;;;;;;15.86;100.00;101034.09;5022937;28;20038;-81
2023/09/02 01:42:56;;;;;;;3.30;3.00;;;;;;;15.86;100.00;101042.03;5018764;28;20052;-82
2023/09/02 01:45:28;;;;;;;2.60;2.40;;;;;;;15.85;100.00;101045.56;5022470;28;20405;-81
2023/09/02 01:47:55;;;;;;;2.67;2.47;;;;;;;15.84;100.00;101041.22;5035838;28;20056;-83
2023/09/02 01:50:26;;;;;;;3.63;2.88;;;;;;;15.83;100.00;101044.75;5026488;28;20038;-81
2023/09/02 01:52:55;;;;;;;3.47;3.17;;;;;;;15.81;100.00;101041.25;5033951;28;20819;-81
2023/09/02 01:55:22;;;;;;;3.20;2.90;;;;;;;15.81;100.00;101047.44;5038494;28;20584;-83
2023/09/02 01:57:49;;;;;;;3.95;3.38;;;;;;;15.82;100.00;101057.06;5019564;28;20049;-83
2023/09/02 02:00:16;;;;;;;3.72;3.42;;;;;;;15.83;100.00;101052.66;5021375;28;20044;-81
2023/09/02 02:02:42;;;;;;;5.88;4.07;;;;;;;15.80;100.00;101053.56;5016114;28;20078;-83
2023/09/02 02:05:14;;;;;;;3.78;3.38;;;;;;;15.79;100.00;101048.34;5022772;28;20142;-81
2023/09/02 02:07:43;;;;;;;3.30;3.00;;;;;;;15.79;100.00;101054.47;5020631;28;20037;-81
2023/09/02 02:10:13;;;;;;;3.45;3.25;;;;;;;15.81;100.00;101051.81;5021535;28;20416;-81
2023/09/02 02:12:43;;;;;;;4.28;3.97;;;;;;;15.79;100.00;101051.84;5016326;28;20045;-82
2023/09/02 02:15:11;;;;;;;4.30;3.75;;;;;;;15.80;100.00;101061.50;5014317;28;20037;-82
2023/09/02 02:17:42;;;;;;;3.63;3.38;;;;;;;15.80;100.00;101056.22;5018899;28;20505;-80
2023/09/02 02:20:10;;;;;;;4.75;3.40;;;;;;;15.75;100.00;101055.47;5019109;28;20100;-81
2023/09/02 02:22:36;;;;;;;4.68;3.63;;;;;;;15.70;100.00;101055.56;5018743;28;20053;-82
2023/09/02 02:25:03;;;;;;;4.30;3.90;;;;;;;15.70;100.00;101067.91;5006419;28;20663;-82
2023/09/02 02:27:30;;;;;;;4.53;3.70;;;;;;;15.68;100.00;101065.31;5007090;28;20111;-82
2023/09/02 02:29:57;;;;;;;5.60;3.88;;;;;;;15.70;100.00;101068.75;5018545;28;20053;-81
2023/09/02 02:32:24;;;;;;;3.75;3.38;;;;;;;15.71;100.00;101070.50;5018129;28;20045;-80
2023/09/02 02:34:51;;;;;;;4.78;3.80;;;;;;;15.74;100.00;101069.56;5019930;28;20056;-81
2023/09/02 02:37:17;;;;;;;5.50;3.97;;;;;;;15.76;100.00;101074.78;5039495;28;20042;-85
2023/09/02 02:39:44;;;;;;;2.88;2.72;;;;;;;15.77;100.00;101080.03;5035751;28;20055;-81
2023/09/02 02:42:10;;;;;;;3.67;3.38;;;;;;;15.79;100.00;101072.09;5029911;28;20498;-83
2023/09/02 02:44:37;;;;;;;3.92;3.63;;;;;;;15.77;100.00;101079.16;5017040;28;20045;-81
2023/09/02 02:47:03;;;;;;;4.25;3.35;;;;;;;15.74;100.00;101080.09;5024465;28;20125;-81
2023/09/02 02:49:30;;;;;;;4.15;3.83;;;;;;;15.74;100.00;101081.91;5023527;28;20053;-81
2023/09/02 02:51:56;;;;;;;3.70;3.50;;;;;;;15.72;100.00;101079.25;5054340;28;20159;-83
2023/09/02 02:54:23;;;;;;;5.40;4.35;;;;;;;15.69;100.00;101085.47;5024215;28;20041;-81
2023/09/02 02:56:49;;;;;;;4.32;3.50;;;;;;;15.68;100.00;101081.13;5007915;28;20049;-81
2023/09/02 02:59:18;;;;;;;4.10;3.80;;;;;;;15.67;100.00;101089.06;4998472;28;20045;-80
2023/09/02 03:01:44;;;;;;;5.30;4.72;;;;;;;15.66;100.00;101092.63;5036529;28;20156;-85
2023/09/02 03:04:12;;;;;;;3.83;3.50;;;;;;;15.65;100.00;101091.75;5022388;28;20771;-79
2023/09/02 03:06:39;;;;;;;4.82;4.43;;;;;;;15.68;100.00;101094.34;5023714;28;20050;-82
2023/09/02 03:09:06;;;;;;;5.13;3.03;;;;;;;15.71;100.00;101088.13;5040836;28;20064;-79
2023/09/02 03:11:32;;;;;;;4.30;3.88;;;;;;;15.74;100.00;101093.31;5052572;28;20495;-83
2023/09/02 03:13:59;;;;;;;4.65;4.25;;;;;;;15.77;100.00;101098.50;5016867;28;20045;-80
2023/09/02 03:16:25;;;;;;;4.40;4.03;;;;;;;15.77;100.00;101097.66;5021387;28;20045;-81
2023/09/02 03:18:54;;;;;;;4.70;4.13;;;;;;;15.79;100.00;101094.06;5016628;28;20076;-81
2023/09/02 03:21:20;;;;;;;5.15;4.60;;;;;;;15.79;100.00;101093.22;5048136;28;20045;-82
2023/09/02 03:23:47;;;;;;;5.00;4.60;;;;;;;15.78;100.00;101088.84;5014011;28;20087;-81
2023/09/02 03:26:16;;;;;;;5.05;4.68;;;;;;;15.78;100.00;101087.03;5035798;28;20056;-80
2023/09/02 03:28:42;;;;;;;4.43;4.03;;;;;;;15.79;100.00;101086.16;5018365;28;20041;-81
2023/09/02 03:31:10;;;;;;;5.47;3.97;;;;;;;15.81;100.00;101094.06;5020212;28;20064;-81
2023/09/02 03:33:37;;;;;;;4.35;3.70;;;;;;;15.81;100.00;101089.66;5017689;28;20065;-83
2023/09/02 03:36:05;;;;;;;4.00;2.90;;;;;;;15.82;100.00;101091.38;5021121;28;20042;-80
2023/09/02 03:38:31;;;;;;;5.70;4.32;;;;;;;15.83;100.00;101085.19;5021934;28;20050;-83
2023/09/02 03:40:59;;;;;;;3.85;3.40;;;;;;;15.84;100.00;101088.72;5054203;28;20068;-82
2023/09/02 03:43:25;;;;;;;5.32;3.78;;;;;;;15.80;100.00;101092.28;5014575;28;20486;-82
2023/09/02 03:45:52;;;;;;;4.15;3.85;;;;;;;15.78;100.00;101088.84;5022688;28;20042;-84
2023/09/02 03:48:19;;;;;;;4.45;4.05;;;;;;;15.74;100.00;101082.75;5015710;28;20045;-81
2023/09/02 03:51:12;;;;;;;3.38;2.75;;;;;;;15.74;100.00;101087.19;5023911;28;20057;-86
2023/09/02 03:53:41;;;;;;;2.80;2.70;;;;;;;15.71;100.00;101091.59;5013681;28;20044;-81
2023/09/02 03:56:08;;;;;;;3.50;3.15;;;;;;;15.69;100.00;101088.13;5021007;28;20050;-81
2023/09/02 03:58:35;;;;;;;3.58;2.97;;;;;;;15.68;100.00;101085.53;5022202;28;20047;-81
2023/09/02 04:01:03;;;;;;;3.38;3.10;;;;;;;15.67;100.00;101094.34;5025319;28;20037;-84
2023/09/02 04:03:35;;;;;;;3.85;3.58;;;;;;;15.64;100.00;101089.16;5017720;28;20100;-82
2023/09/02 04:06:02;;;;;;;4.50;3.22;;;;;;;15.63;100.00;101097.97;5022395;28;20049;-85
2023/09/02 04:08:33;;;;;;;3.15;2.95;;;;;;;15.60;100.00;101098.03;5021649;28;20489;-81
2023/09/02 04:11:01;;;;;;;3.30;3.10;;;;;;;15.54;100.00;101104.34;5049667;28;20038;-81
2023/09/02 04:13:28;;;;;;;3.35;3.15;;;;;;;15.49;100.00;101101.78;5012225;28;20553;-80
2023/09/02 04:16:00;;;;;;;2.92;2.70;;;;;;;15.43;100.00;101101.91;5046875;28;20148;-81
2023/09/02 04:18:27;;;;;;;3.03;2.42;;;;;;;15.43;100.00;101101.91;5020858;28;20049;-85
2023/09/02 04:20:54;;;;;;;3.92;2.80;;;;;;;15.46;100.00;101103.63;5012043;28;20630;-82
2023/09/02 04:23:21;;;;;;;3.20;3.05;;;;;;;15.46;100.00;101106.25;5013099;28;20138;-80
2023/09/02 04:25:53;;;;;;;4.88;3.85;;;;;;;15.44;100.00;101105.44;5012046;28;20091;-81
2023/09/02 04:28:20;;;;;;;2.92;2.72;;;;;;;15.41;100.00;101106.38;5021318;28;20490;-82
2023/09/02 04:30:48;;;;;;;7.40;3.25;;;;;;;15.44;100.00;101116.84;5022162;28;20132;-82
2023/09/02 04:33:16;;;;;;;2.70;2.60;;;;;;;15.40;100.00;101112.53;5028250;28;20057;-81
2023/09/02 04:35:45;;;;;;;3.30;2.85;;;;;;;15.34;100.00;101118.84;5033823;28;20076;-81
2023/09/02 04:38:12;;;;;;;2.55;2.35;;;;;;;15.36;100.00;101118.78;5004382;28;20596;-81
2023/09/02 04:40:43;;;;;;;4.15;3.78;;;;;;;15.37;100.00;101121.38;5021910;28;20041;-86
2023/09/02 04:43:11;;;;;;;6.65;3.72;;;;;;;15.37;100.00;101123.16;5032631;28;20756;-81
2023/09/02 04:45:40;;;;;;;3.22;2.92;;;;;;;15.33;100.00;101132.91;5019544;28;20500;-85
2023/09/02 04:48:08;;;;;;;5.03;3.72;;;;;;;15.36;100.00;101131.97;5033708;28;20046;-84
2023/09/02 04:50:37;;;;;;;3.35;3.05;;;;;;;15.36;100.00;101138.13;5023220;28;20046;-84
2023/09/02 04:53:05;;;;;;;4.00;3.70;;;;;;;15.35;100.00;101143.44;5022270;28;20113;-82
2023/09/02 04:55:31;;;;;;;5.07;4.05;;;;;;;15.26;100.00;101144.47;5018604;28;20128;-82
2023/09/02 04:57:59;;;;;;;4.00;3.63;;;;;;;15.22;100.00;101146.31;5022197;28;20046;-82
2023/09/02 05:00:27;;;;;;;3.70;3.35;;;;;;;15.18;100.00;101156.97;5026529;28;20042;-82
2023/09/02 05:02:54;;;;;;;5.78;4.03;;;;;;;15.14;100.00;101153.50;5022145;28;20049;-82
2023/09/02 05:05:23;;;;;;;3.40;3.20;;;;;;;15.19;100.00;101154.28;5056732;28;20140;-81
2023/09/02 05:07:50;;;;;;;4.72;3.58;;;;;;;15.33;100.00;101158.41;5025443;28;20421;-82
2023/09/02 05:10:17;;;;;;;5.30;3.88;;;;;;;15.38;100.00;101156.53;5023129;28;20046;-81
2023/09/02 05:12:43;;;;;;;6.38;3.80;;;;;;;15.38;100.00;101156.53;5038960;28;20150;-81
2023/09/02 05:15:10;;;;;;;4.20;3.85;;;;;;;15.42;100.00;101152.94;5019243;28;20053;-82
2023/09/02 05:17:37;;;;;;;4.55;3.70;;;;;;;15.48;100.00;101160.72;5028132;28;20049;-81
2023/09/02 05:20:05;;;;;;;4.35;3.90;;;;;;;15.54;100.00;101162.38;5020684;28;20041;-86
2023/09/02 05:22:32;;;;;;;4.20;3.20;;;;;;;15.59;100.00;101159.63;5022246;28;20071;-83
2023/09/02 05:24:59;;;;;;;4.65;3.58;;;;;;;15.66;100.00;101171.81;5024082;28;20101;-86
2023/09/02 05:27:26;;;;;;;6.25;4.20;;;;;;;15.69;100.00;101174.38;5023868;28;20056;-82
2023/09/02 05:29:52;;;;;;;3.35;3.15;;;;;;;15.77;100.00;101168.91;5025498;28;20045;-81
2023/09/02 05:32:19;;;;;;;5.20;4.70;;;;;;;15.73;100.00;101161.97;5025409;28;20050;-82
2023/09/02 05:34:46;;;;;;;5.55;4.20;;;;;;;15.67;100.00;101166.47;5025633;28;20045;-83
2023/09/02 05:37:13;;;;;;;3.63;3.42;;;;;;;15.73;100.00;101173.38;5029966;28;20472;-82
2023/09/02 05:39:39;;;;;;;3.78;3.47;;;;;;;15.79;100.00;101186.47;5029119;28;20084;-82
2023/09/02 05:42:06;;;;;;;4.40;4.00;;;;;;;15.79;100.00;101182.97;5037353;28;20049;-82
2023/09/02 05:44:35;;;;;;;5.05;4.40;;;;;;;15.84;100.00;101174.06;5005566;28;20386;-82
2023/09/02 05:47:02;;;;;;;6.07;4.43;;;;;;;15.75;100.00;101176.00;5023657;28;20049;-83
2023/09/02 05:49:29;;;;;;;8.07;3.80;;;;;;;15.90;100.00;101180.09;5028078;28;20084;-81
2023/09/02 05:51:55;;;;;;;7.45;4.30;;;;;;;16.04;100.00;101173.59;5019662;28;20458;-81
2023/09/02 05:54:22;;;;;;;3.60;3.30;;;;;;;16.10;100.00;101177.00;5027847;28;20123;-81
2023/09/02 05:56:49;;;;;;;4.30;3.97;;;;;;;16.15;100.00;101172.47;5023984;28;20041;-81
2023/09/02 05:59:15;;;;;;;3.38;3.13;;;;;;;16.18;100.00;101175.91;5040141;28;20691;-81
2023/09/02 06:01:43;;;;;;;3.95;3.65;;;;;;;16.28;100.00;101175.69;5022625;28;20050;-84
2023/09/02 06:04:09;;;;;;;3.42;3.13;;;;;;;16.33;100.00;101182.59;5026165;28;20041;-80
2023/09/02 06:06:35;;;;;;;4.35;3.95;;;;;;;16.37;100.00;101200.13;5042070;28;20427;-80
2023/09/02 06:09:02;;;;;;;4.18;3.78;;;;;;;16.44;100.00;101198.19;5027572;28;20054;-82
2023/09/02 06:11:31;;;;;;;3.65;3.33;;;;;;;16.41;100.00;101202.69;5025460;28;20048;-82
2023/09/02 06:13:57;;;;;;;5.05;3.75;;;;;;;16.41;100.00;101200.91;5019136;28;20102;-82
2023/09/02 06:16:24;;;;;;;5.97;5.40;;;;;;;16.34;100.00;101210.75;5024009;28;20044;-81
2023/09/02 06:18:50;;;;;;;3.92;3.63;;;;;;;16.37;100.00;101215.97;5025546;28;20045;-81
2023/09/02 06:21:17;;;;;;;4.05;3.65;;;;;;;16.38;100.00;101204.47;5026333;28;20715;-83
2023/09/02 06:23:45;;;;;;;3.90;3.60;;;;;;;16.52;100.00;101203.28;5024854;28;20115;-82
2023/09/02 06:26:13;;;;;;;3.30;3.10;;;;;;;16.71;100.00;101208.97;5028553;28;20553;-87
2023/09/02 06:28:40;;;;;;;5.97;5.25;;;;;;;17.08;100.00;101209.78;5006319;28;20107;-81
2023/09/02 06:31:11;;;;;;;4.32;3.92;;;;;;;17.25;100.00;101214.63;5026457;28;20753;-82
2023/09/02 06:33:38;;;;;;;3.90;3.55;;;;;;;17.34;100.00;101207.31;5021910;28;20054;-85
2023/09/02 06:36:16;;;;;;;4.45;4.07;;;;;;;17.46;100.00;101207.88;5027009;28;20041;-81
2023/09/02 06:38:43;;;;;;;5.15;4.65;;;;;;;17.67;100.00;101214.31;5024496;28;20053;-87
2023/09/02 06:41:12;;;;;;;4.07;3.78;;;;;;;19.50;98.91;101217.13;5024990;28;20057;-81
2023/09/02 06:43:40;;;;;;;5.25;4.63;;;;;;;21.22;89.67;101218.19;5020006;28;20092;-80
2023/09/02 06:46:11;;;;;;;4.40;3.72;;;;;;;22.17;82.86;101222.75;5024426;28;20049;-81
2023/09/02 06:48:38;;;;;;;4.70;3.60;;;;;;;22.05;81.26;101221.53;5022756;28;20057;-84
2023/09/02 06:51:04;;;;;;;4.45;4.15;;;;;;;22.12;79.95;101223.84;5039412;28;20060;-81
2023/09/02 06:53:31;;;;;;;3.92;3.60;;;;;;;22.60;80.48;101212.63;5019054;28;20072;-83
2023/09/02 06:55:57;;;;;;;6.10;4.97;;;;;;;23.78;72.09;101210.00;5020280;28;20789;-82
2023/09/02 06:58:24;;;;;;;7.88;4.60;;;;;;;25.44;64.35;101217.28;5023000;28;20481;-86
2023/09/02 07:00:50;;;;;;;5.80;4.63;;;;;;;25.39;61.60;101227.44;5018111;28;20044;-82
2023/09/02 07:03:17;;;;;;;6.50;5.55;;;;;;;24.92;63.11;101227.53;5055206;28;20033;-81
2023/09/02 07:05:43;;;;;;;7.30;5.75;;;;;;;25.97;57.13;101232.72;5038748;28;20136;-85
2023/09/02 07:08:10;;;;;;;6.13;5.13;;;;;;;26.51;57.06;101224.69;5032733;28;20052;-84
2023/09/02 07:10:37;;;;;;;7.47;6.75;;;;;;;26.38;55.76;101223.81;5023514;28;20037;-82
2023/09/02 07:13:03;;;;;;;7.80;7.00;;;;;;;26.92;53.95;101222.84;5055343;28;20540;-80
2023/09/02 07:15:30;;;;;;;7.50;6.78;;;;;;;26.67;53.25;101229.88;5020435;28;20049;-81
2023/09/02 07:17:56;;;;;;;7.90;7.10;;;;;;;26.60;54.15;101233.09;5036977;28;20100;-80
2023/09/02 07:20:23;;;;;;;8.93;5.50;;;;;;;26.82;53.87;101244.13;5021148;28;20521;-81
2023/09/02 07:22:49;;;;;;;8.10;6.68;;;;;;;26.34;51.63;101238.38;5018585;28;20049;-81
2023/09/02 07:25:16;;;;;;;7.10;6.40;;;;;;;26.14;52.62;101242.38;5054750;28;20038;-80
2023/09/02 07:27:42;;;;;;;12.73;7.05;;;;;;;26.49;53.01;101241.84;5046108;28;20053;-85
2023/09/02 07:30:10;;;;;;;10.02;6.75;;;;;;;26.73;52.86;101245.59;5030298;28;20045;-82
2023/09/02 07:32:36;;;;;;;7.55;6.85;;;;;;;27.63;49.67;101246.63;5015791;28;20072;-85
2023/09/02 07:35:03;;;;;;;7.72;7.03;;;;;;;27.21;50.39;101250.38;5003246;28;20394;-83
2023/09/02 07:37:29;;;;;;;6.35;5.75;;;;;;;27.54;50.01;101249.00;5023851;28;20120;-81
2023/09/02 07:39:56;;;;;;;8.90;5.90;;;;;;;27.44;50.42;101255.16;5020635;28;20068;-83
2023/09/02 07:42:22;;;;;;;7.88;6.43;;;;;;;27.70;49.31;101256.84;5017801;28;20065;-85
2023/09/02 07:44:49;;;;;;;6.75;5.53;;;;;;;28.67;46.12;101261.50;5017651;28;20099;-83
2023/09/02 07:47:15;;;;;;;7.25;5.05;;;;;;;28.47;47.74;101261.09;5025013;28;20389;-83
2023/09/02 07:49:42;;;;;;;6.22;5.65;;;;;;;27.05;50.44;101261.34;5007157;28;20041;-84
2023/09/02 07:52:08;;;;;;;5.53;4.75;;;;;;;24.98;57.19;101263.81;5023799;28;20047;-81
2023/09/02 07:54:35;;;;;;;6.57;5.97;;;;;;;24.44;59.97;101270.50;5023643;28;20045;-84
2023/09/02 07:57:01;;;;;;;5.82;5.10;;;;;;;26.90;50.30;101271.31;5034610;28;20095;-83
2023/09/02 07:59:28;;;;;;;4.97;4.45;;;;;;;28.46;46.70;101263.91;5032640;28;20045;-87
2023/09/02 08:01:54;;;;;;;7.85;6.57;;;;;;;28.16;46.21;101267.91;5063282;28;20049;-84
2023/09/02 08:04:21;;;;;;;6.15;5.20;;;;;;;28.27;46.95;101276.06;5033927;28;20037;-85
2023/09/02 08:06:47;;;;;;;4.93;4.53;;;;;;;27.47;49.24;101273.75;5016907;28;20105;-87
2023/09/02 08:09:14;;;;;;;5.35;4.85;;;;;;;25.86;54.15;101281.69;5032016;28;20046;-88
2023/09/02 08:11:40;;;;;;;7.45;5.03;;;;;;;24.28;58.91;101283.00;5048905;28;20195;-84
2023/09/02 08:14:07;;;;;;;5.65;5.20;;;;;;;23.43;64.00;101276.94;5047113;28;20061;-83
2023/09/02 08:16:33;;;;;;;7.65;4.82;;;;;;;23.23;65.37;101277.97;5010392;28;20263;-82
2023/09/02 08:19:00;;;;;;;5.05;4.65;;;;;;;22.88;66.69;101284.16;5027083;28;20115;-83
2023/09/02 08:21:26;;;;;;;5.65;5.13;;;;;;;22.24;69.74;101290.81;5025292;28;20046;-85
2023/09/02 08:23:53;;;;;;;4.40;4.03;;;;;;;22.17;70.87;101294.72;5022231;28;20528;-81
2023/09/02 08:26:19;;;;;;;5.40;4.95;;;;;;;22.20;70.63;101303.47;5021895;28;20041;-84
2023/09/02 08:28:48;;;;;;;5.50;5.00;;;;;;;22.26;71.20;101307.63;5015438;28;20034;-83
2023/09/02 08:31:19;;;;;;;7.38;5.50;;;;;;;22.16;71.40;101314.34;5022033;28;20099;-83
2023/09/02 08:33:46;;;;;;;5.60;5.07;;;;;;;21.94;72.96;101320.66;5003116;28;20062;-82
2023/09/02 08:36:18;;;;;;;6.95;4.70;;;;;;;22.39;70.78;101322.13;5023440;28;20133;-83
2023/09/02 08:38:45;;;;;;;5.13;4.47;;;;;;;22.65;69.23;101308.47;5022943;28;20562;-83
2023/09/02 08:41:30;;;;;;;5.18;4.50;;;;;;;23.23;66.38;101318.03;5007618;28;20053;-82
2023/09/02 08:44:03;;;;;;;8.77;4.68;;;;;;;23.22;66.09;101316.28;5016925;28;20046;-81
2023/09/02 08:46:33;;;;;;;4.88;4.50;;;;;;;22.66;68.63;101326.19;5022089;28;20561;-84
2023/09/02 08:49:00;;;;;;;4.75;4.22;;;;;;;22.45;69.49;101329.84;5016720;28;20103;-84
2023/09/02 08:51:28;;;;;;;4.03;3.63;;;;;;;22.15;71.82;101334.81;5021333;28;20034;-83
2023/09/02 08:53:56;;;;;;;3.65;3.35;;;;;;;22.52;70.14;101332.22;5018828;28;20037;-82
2023/09/02 08:56:23;;;;;;;4.78;4.32;;;;;;;22.88;67.28;101334.00;5043257;28;20060;-82
2023/09/02 08:58:50;;;;;;;3.88;3.40;;;;;;;22.97;67.53;101336.19;5015953;28;20046;-83
2023/09/02 09:01:22;;;;;;;4.25;3.85;;;;;;;22.91;66.76;101337.38;5013820;28;20529;-81
2023/09/02 09:03:57;;;;;;;3.70;3.50;;;;;;;22.91;67.19;101334.72;5044145;28;20752;-87
2023/09/02 09:06:25;;;;;;;5.53;3.60;;;;;;;23.31;65.30;101334.53;5022567;28;20047;-82
2023/09/02 09:08:54;;;;;;;6.78;4.05;;;;;;;24.11;62.01;101334.78;5024108;28;20033;-84
2023/09/02 09:11:23;;;;;;;4.05;3.78;;;;;;;24.57;59.17;101342.88;5024378;28;20045;-82
2023/09/02 09:13:54;;;;;;;4.47;3.33;;;;;;;24.28;60.24;101333.84;5022021;28;20048;-81
2023/09/02 09:16:24;;;;;;;3.55;3.25;;;;;;;24.30;60.32;101342.66;5025628;28;20033;-84
2023/09/02 09:18:51;;;;;;;4.47;3.20;;;;;;;24.68;59.94;101341.44;5020456;28;20057;-82
2023/09/02 09:21:19;;;;;;;3.03;2.60;;;;;;;24.52;60.23;101347.66;5004805;28;20057;-84
2023/09/02 09:23:46;;;;;;;3.30;2.97;;;;;;;25.00;57.10;101347.59;5026869;28;20073;-82
2023/09/02 09:26:15;;;;;;;2.13;2.03;;;;;;;24.85;57.32;101343.13;5024655;28;20053;-84
2023/09/02 09:28:56;;;;;;;1.88;1.77;;;;;;;25.89;54.31;101359.25;5017666;28;20057;-85
2023/09/02 09:31:24;;;;;;;2.45;2.35;;;;;;;26.16;52.82;101359.38;5004661;28;20053;-84
2023/09/02 09:34:00;;;;;;;2.40;2.30;;;;;;;25.10;55.46;101347.94;5015884;28;20058;-82
2023/09/02 09:36:29;;;;;;;2.92;2.55;;;;;;;24.32;58.19;101361.28;5006066;28;20053;-82
2023/09/02 09:38:58;;;;;;;2.95;2.10;;;;;;;23.90;59.69;101364.41;5027945;28;20038;-84
2023/09/02 09:41:26;;;;;;;2.03;1.65;;;;;;;23.76;61.61;101362.44;5023603;28;20113;-83
2023/09/02 09:44:06;;;;;;;1.70;1.60;;;;;;;23.35;61.00;101356.59;5005291;28;20060;-87
2023/09/02 09:46:50;;;;;;;1.75;1.65;;;;;;;23.12;62.69;101364.81;5042652;28;20061;-83
2023/09/02 09:49:27;;;;;;;1.98;1.88;;;;;;;22.93;66.14;101362.22;5025811;28;20478;-83
2023/09/02 09:52:00;;;;;;;2.50;2.33;;;;;;;24.39;61.06;101362.66;5025484;28;20076;-84
2023/09/02 09:54:45;;;;;;;2.22;2.13;;;;;;;24.37;59.68;101361.91;5021870;28;20478;-83
2023/09/02 09:57:16;;;;;;;2.08;1.98;;;;;;;25.14;57.55;101367.38;5025278;28;20481;-83
2023/09/02 09:59:53;;;;;;;1.90;1.80;;;;;;;25.76;54.57;101362.72;5020905;28;20045;-85
2023/09/02 10:02:21;;;;;;;2.00;1.90;;;;;;;26.30;51.89;101369.25;5025818;28;20420;-83
2023/09/02 10:04:57;;;;;;;1.80;1.48;;;;;;;25.96;52.02;101362.41;5026115;28;20090;-82
2023/09/02 10:07:35;;;;;;;2.22;1.95;;;;;;;26.61;50.70;101372.63;5028903;28;20065;-82
2023/09/02 10:10:06;;;;;;;2.35;2.22;;;;;;;26.71;49.59;101370.19;5024149;28;20073;-82
2023/09/02 10:12:34;;;;;;;2.17;1.98;;;;;;;27.23;48.81;101377.47;5035225;28;20054;-82
2023/09/02 10:15:02;;;;;;;1.58;1.48;;;;;;;27.02;49.61;101371.72;5023492;28;20095;-82
2023/09/02 10:17:29;;;;;;;2.15;1.48;;;;;;;26.62;50.82;101389.59;5010995;28;20073;-80
2023/09/02 10:19:55;;;;;;;3.47;2.10;;;;;;;26.09;51.11;101391.09;5057379;28;20093;-82
2023/09/02 10:22:22;;;;;;;2.33;2.00;;;;;;;25.21;54.26;101392.81;5027354;28;20053;-82
2023/09/02 10:25:04;;;;;;;3.47;3.20;;;;;;;24.41;57.47;101387.53;5023939;28;20099;-82
2023/09/02 10:27:37;;;;;;;4.03;3.63;;;;;;;23.88;60.72;101387.66;5034744;28;20044;-82
2023/09/02 10:30:15;;;;;;;3.80;3.50;;;;;;;23.21;64.16;101392.91;5026067;28;20084;-82
2023/09/02 10:32:42;;;;;;;5.60;4.10;;;;;;;23.02;65.82;101392.91;5023552;28;20077;-86
2023/09/02 10:35:16;;;;;;;3.70;3.45;;;;;;;23.46;63.80;101378.28;5019212;28;20715;-84
2023/09/02 10:37:51;;;;;;;3.03;2.83;;;;;;;23.19;64.32;101388.56;5026620;28;20115;-84
2023/09/02 10:40:24;;;;;;;3.13;2.83;;;;;;;22.79;66.09;101391.41;5022010;28;20038;-81
2023/09/02 10:42:52;;;;;;;2.78;2.58;;;;;;;23.15;65.24;101384.34;5027635;28;20092;-80
2023/09/02 10:45:19;;;;;;;1.77;1.65;;;;;;;23.53;63.72;101384.16;5003453;28;20049;-80
2023/09/02 10:47:47;;;;;;;1.23;1.17;;;;;;;23.97;62.09;101382.81;5024199;28;20045;-81
2023/09/02 10:50:16;;;;;;;1.23;1.23;;;;;;;23.91;61.79;101383.97;5019505;28;20139;-82
2023/09/02 10:52:43;;;;;;;1.20;1.10;;;;;;;23.71;61.31;101380.53;5011317;28;20903;-83
2023/09/02 10:55:12;;;;;;;0.75;0.75;;;;;;;23.73;61.12;101392.03;5027456;28;20107;-81
2023/09/02 10:58:04;;;;;;;0.85;0.73;;;;;;;24.19;59.09;101385.19;5027021;28;20033;-85
2023/09/02 11:00:32;;;;;;;2.43;1.10;;;;;;;24.53;57.44;101391.34;5033417;28;20429;-86
2023/09/02 11:03:00;;;;;;;0.65;0.65;;;;;;;24.75;57.06;101393.69;5002689;28;20056;-82
2023/09/02 11:05:29;;;;;;;1.25;0.90;;;;;;;24.30;57.36;101390.81;5027586;28;20622;-81
2023/09/02 11:07:56;;;;;;;1.13;1.10;;;;;;;24.51;57.18;101394.09;5052861;28;20123;-83
2023/09/02 11:10:52;;;;;;;1.40;1.30;;;;;;;24.75;56.20;101399.91;5023372;28;20045;-83
2023/09/02 11:13:19;;;;;;;0.88;0.65;;;;;;;24.63;56.41;101386.31;5036717;28;20057;-82
2023/09/02 11:16:12;;;;;;;0.85;0.77;;;;;;;25.19;53.92;101389.41;5027498;28;20049;-83
2023/09/02 11:18:40;;;;;;;0.98;0.95;;;;;;;25.23;54.22;101389.09;5017117;28;20049;-83
2023/09/02 11:21:06;;;;;;;0.50;0.50;;;;;;;25.12;53.04;101382.66;5008483;28;20148;-82
2023/09/02 11:23:34;;;;;;;0.88;0.88;;;;;;;26.01;50.77;101395.19;5021426;28;20120;-82
2023/09/02 11:26:06;;;;;;;0.60;0.60;;;;;;;26.93;48.94;101392.97;5020043;28;20123;-83
2023/09/02 11:28:33;;;;;;;0.60;0.60;;;;;;;27.69;45.95;101397.69;5005540;28;20756;-88